createdAt,value
2023-04-26T00:13:14.908Z,65.2
2023-04-26T00:28:24.536Z,65.2
2023-04-26T00:43:34.091Z,65.2
2023-04-26T00:58:43.206Z,65.4
2023-04-26T01:13:53.081Z,65.8
2023-04-26T01:29:02.591Z,65.6
2023-04-26T01:44:12.172Z,65.7
2023-04-26T01:59:20.914Z,65.7
2023-04-26T02:14:30.528Z,65.7
2023-04-26T02:29:45.528Z,65.8
2023-04-26T02:44:55.383Z,65.8
2023-04-26T03:00:05.501Z,65.9
2023-04-26T03:15:13.901Z,66
2023-04-26T03:30:23.849Z,66.1
2023-04-26T03:45:33.723Z,66.1
2023-04-26T04:00:43.406Z,66.2
2023-04-26T04:15:53.248Z,66.2
2023-04-26T04:31:03.124Z,66
2023-04-26T04:46:14.003Z,65.9
2023-04-26T05:01:23.949Z,65.8
2023-04-26T05:16:33.844Z,65.9
2023-04-26T05:31:42.888Z,65.8
2023-04-26T05:46:53.024Z,65.1
2023-04-26T06:02:03.287Z,65.2
2023-04-26T06:17:14.372Z,65.2
2023-04-26T06:32:25.137Z,65.2
2023-04-26T06:47:35.463Z,64.9
2023-04-26T07:02:45.860Z,64.8
2023-04-26T07:17:56.236Z,64.6
2023-04-26T07:33:12.839Z,64.7
2023-04-26T07:48:23.951Z,64.2
2023-04-26T08:03:36.201Z,63.9
2023-04-26T08:18:47.687Z,63.8
2023-04-26T08:33:57.897Z,63.6
2023-04-26T08:49:07.717Z,63.4
2023-04-26T09:04:18.716Z,63
2023-04-26T09:19:29.084Z,62.8
2023-04-26T09:34:39.464Z,62.7
2023-04-26T09:49:50.179Z,62.6
2023-04-26T10:05:00.664Z,62.2
2023-04-26T10:20:11.854Z,61.9
2023-04-26T10:35:21.885Z,61.6
2023-04-26T10:50:31.513Z,61.2
2023-04-26T11:05:41.522Z,61
2023-04-26T11:20:50.794Z,61.1
2023-04-26T11:36:00.888Z,60.3
2023-04-26T11:51:12.607Z,60
2023-04-26T12:06:22.889Z,59.8
2023-04-26T12:21:33.212Z,60.2
2023-04-26T12:36:42.722Z,60.5
2023-04-26T12:51:52.354Z,60
2023-04-26T13:07:01.588Z,60.4
2023-04-26T13:22:13.481Z,60.4
2023-04-26T13:37:23.530Z,60.1
2023-04-26T13:52:33.514Z,59.3
2023-04-26T14:07:45.000Z,57.7
2023-04-26T14:22:54.114Z,59.1
2023-04-26T14:38:03.063Z,59.7
2023-04-26T14:53:12.737Z,59.7
2023-04-26T15:08:22.667Z,59.8
2023-04-26T15:23:32.052Z,59.9
2023-04-26T15:38:41.603Z,60.1
2023-04-26T15:53:51.180Z,59.9
2023-04-26T16:09:03.343Z,60
2023-04-26T16:24:14.834Z,60
2023-04-26T16:39:24.832Z,60.1
2023-04-26T16:54:34.264Z,60.3
2023-04-26T17:09:43.450Z,60.4
2023-04-26T17:24:52.774Z,60.6
2023-04-26T17:40:02.693Z,60.9
2023-04-26T17:55:13.005Z,60.9
2023-04-26T18:10:22.584Z,60.8
2023-04-26T18:25:32.344Z,60.8
2023-04-26T18:40:41.522Z,61
2023-04-26T18:55:51.335Z,61.1
2023-04-26T19:11:00.559Z,61.2
2023-04-26T19:26:13.469Z,61.2
2023-04-26T19:42:42.330Z,60.7
2023-04-26T19:57:52.752Z,61.6
2023-04-26T20:13:02.329Z,61.9
2023-04-26T20:28:13.107Z,61.8
2023-04-26T20:43:23.508Z,62
2023-04-26T20:58:33.243Z,61.9
2023-04-26T21:13:43.032Z,61.9
2023-04-26T21:28:52.904Z,62
2023-04-26T21:44:02.414Z,62.1
2023-04-26T21:59:13.482Z,62.2
2023-04-26T22:14:23.368Z,62.2
2023-04-26T22:29:32.878Z,62.4
2023-04-26T22:44:42.481Z,62.5
2023-04-26T22:59:51.884Z,62.5
2023-04-26T23:15:01.876Z,62.5
2023-04-26T23:30:13.282Z,62.5
2023-04-26T23:45:22.844Z,62.6
